If you wish to contribute or participate in the discussions about articles you are invited to join SKYbrary as a registered user

 Actions

Tuzla International Airport

From SKYbrary Wiki

LQTZ /
Revision as of 07:06, 26 August 2021 by Integration.Manager (talk | contribs) (Created page with "{{Airport |Airport_Name=Tuzla International Airport |ICAO_Region=EUR |ICAO_Territory=LQ |IATA Code=TL |Elevation=765ft |Location=Gornje Dubrave |Main city served=Tuzla |ISO_Su...")
(diff) ← Older revision | Latest revision (diff) | Newer revision → (diff)
Airport
ICAO: LQTZ – IATA: TL
Summary
Name Tuzla International Airport
Region Europe
Territory Bosnia and Herzegovina BA.gif
Location Gornje Dubrave, Tuzla
Serving Tuzla
Elevation 233.172 m <br />765 ft233.172 m <br />
Coordinates 44° 27' 45.22" N, 18° 43' 27.98" E
Runways
Designator Length Width Surface ROPS
9/27 2485 m8,152.887 ft <br /> 45 m147.638 ft <br /> ASP /


METAR
Observation LQTZ 261330Z 23003KT 170V280 8000 NSC 13/06 Q1021
Station Tuzla
Date/Time 26 October 2021 13:30:00
Wind direction 230°
Wind speed 03 kts
Lowest cloud amount nil significant cloud
Temperature 13°C
Dew point 6°C
Humidity 62%
QNH 1021 hPa
Weather condition n/a

Tuzla International Airport is an airport near Tuzla, Bosnia and Herzegovina.

Climatology

Temperate oceanic climate (Köppen climate classification Cfb)

Maps

Terrain

Loading map...

Airport Layout

Loading map...


Accidents & Serious Incidents at or in vicinity of LQTZ

None on SKYbrary